EFJO

Joensuu Airport

Joensuu / Liperi, Finland
METAR EFJO 162350Z AUTO 09001KT 1100 FZBR FEW004 OVC061 M02/M02 Q1003
Observed Flight Rules
Dec-16 @ 23:50 UTC (38 minutes ago) Instrument Flight Rules
Wind Visibility Clouds Conditions
90° at 1 knots 1,094 meters
  • Few at 400' AGL
  • Overcast at 6,100' AGL
  • Freezing
  • Mist
Temperatures Readings
Current -2°C / 28°F
Dewpoint -2°C / 28°F
Humidity 100%
Altimeter 29.62" Hg
Pressure 1003 hPa
Elevation 117
METAR EFJO 162350Z AUTO 09001KT 1100 FZBR FEW004 OVC061 M02/M02 Q1003
Observed Flight Rules
Dec-16 @ 23:50 UTC
(38 minutes ago)
LIFR
Wind Visibility
90° at 1 knots 1,094 meters
Clouds
  • Few at 400' AGL
  • Overcast at 6,100' AGL
Conditions
  • Freezing
  • Mist
Temperature Dewpoint
-2°C / 28°F -2°C / 28°F
Humidity Altimeter Pressure
100% 29.62" Hg 1003 hPa